Time;durP1;ratioP1;P1;durP2;ratioP2;P2;SDS_P1;SDS_P2;PMS_P1;PMS_P2;Temp;Humidity;BMP_temperature;BMP_pressure;BME280_temperature;BME280_humidity;BME280_pressure;Samples;Min_cycle;Max_cycle;Signal;HPM_P1;HPM_P2
2020/12/27 00:00:39;;;;;;;1.17;1.07;;;4.00;99.90;;;;;;5012456;28;20239;-78
2020/12/27 00:03:05;;;;;;;1.60;1.20;;;4.00;99.90;;;;;;5011376;28;20202;-78
2020/12/27 00:05:30;;;;;;;1.50;1.40;;;4.20;99.90;;;;;;5012434;28;20179;-77
2020/12/27 00:07:56;;;;;;;3.10;1.90;;;4.10;99.90;;;;;;5011434;28;20186;-79
2020/12/27 00:10:21;;;;;;;1.50;1.40;;;4.20;99.90;;;;;;5011885;28;20181;-78
2020/12/27 00:12:47;;;;;;;1.37;1.27;;;4.20;99.90;;;;;;5011517;28;20178;-78
2020/12/27 00:15:12;;;;;;;1.50;1.00;;;4.10;99.90;;;;;;5012256;28;20189;-77
2020/12/27 00:17:38;;;;;;;1.10;1.00;;;4.20;99.90;;;;;;5010922;28;20553;-79
2020/12/27 00:20:05;;;;;;;1.80;1.00;;;4.20;99.90;;;;;;5010884;28;20186;-78
2020/12/27 00:22:31;;;;;;;1.98;1.13;;;4.10;99.90;;;;;;5011079;28;20207;-77
2020/12/27 00:24:57;;;;;;;3.40;1.53;;;4.20;99.90;;;;;;5011620;28;20639;-78
2020/12/27 00:27:23;;;;;;;1.10;0.83;;;4.30;99.90;;;;;;5010096;28;20183;-78
2020/12/27 00:29:48;;;;;;;1.27;1.00;;;4.30;99.90;;;;;;5011946;28;20187;-77
2020/12/27 00:32:14;;;;;;;1.77;1.20;;;4.30;99.90;;;;;;5010249;28;20255;-77
2020/12/27 00:34:40;;;;;;;1.00;0.80;;;4.20;99.90;;;;;;5011920;28;20561;-78
2020/12/27 00:37:05;;;;;;;1.70;1.23;;;4.20;99.90;;;;;;5011324;28;20189;-78
2020/12/27 00:39:31;;;;;;;2.13;1.20;;;4.20;99.90;;;;;;5011093;28;20609;-77
2020/12/27 00:42:00;;;;;;;1.57;1.17;;;4.20;99.90;;;;;;5010912;28;20246;-79
2020/12/27 00:44:27;;;;;;;1.23;0.93;;;4.10;99.90;;;;;;5011867;28;20556;-78
2020/12/27 00:46:53;;;;;;;1.95;1.30;;;4.20;99.90;;;;;;5009962;28;20673;-77
2020/12/27 00:49:20;;;;;;;1.43;1.00;;;4.10;99.90;;;;;;5010422;28;20284;-77
2020/12/27 00:51:46;;;;;;;1.55;1.00;;;4.10;99.90;;;;;;5011316;28;20570;-77
2020/12/27 00:54:12;;;;;;;1.20;0.90;;;4.10;99.90;;;;;;5010685;28;20175;-77
2020/12/27 00:56:37;;;;;;;1.33;0.90;;;4.20;99.90;;;;;;5011490;28;20468;-77
2020/12/27 00:59:03;;;;;;;1.20;0.90;;;4.20;99.90;;;;;;5011394;28;20175;-76
2020/12/27 01:01:29;;;;;;;1.33;0.80;;;4.20;99.90;;;;;;5011182;28;20872;-77
2020/12/27 01:03:55;;;;;;;1.43;0.83;;;4.10;99.90;;;;;;5009996;28;20211;-78
2020/12/27 01:06:28;;;;;;;1.10;1.00;;;4.20;99.90;;;;;;5011413;28;20182;-78
2020/12/27 01:08:54;;;;;;;2.70;1.13;;;4.20;99.90;;;;;;5010768;28;20190;-79
2020/12/27 01:11:20;;;;;;;1.15;1.00;;;4.10;99.90;;;;;;5011322;28;20218;-77
2020/12/27 01:13:46;;;;;;;1.10;1.00;;;4.00;99.90;;;;;;5010866;28;20191;-77
2020/12/27 01:16:19;;;;;;;1.13;1.03;;;4.00;99.90;;;;;;5010842;28;20438;-79
2020/12/27 01:18:46;;;;;;;1.70;1.60;;;4.00;99.90;;;;;;5011415;28;20221;-77
2020/12/27 01:21:11;;;;;;;2.65;1.40;;;4.00;99.90;;;;;;5011400;28;20293;-76
2020/12/27 01:23:37;;;;;;;1.03;0.80;;;4.00;99.90;;;;;;5010138;28;20301;-79
2020/12/27 01:26:02;;;;;;;1.00;0.90;;;3.90;99.90;;;;;;5011588;28;20186;-78
2020/12/27 01:28:28;;;;;;;1.57;1.10;;;3.90;99.90;;;;;;5010080;28;20222;-78
2020/12/27 01:30:54;;;;;;;1.20;1.10;;;3.90;99.90;;;;;;5010868;28;20252;-78
2020/12/27 01:33:19;;;;;;;1.20;0.80;;;3.90;99.90;;;;;;5010822;28;20776;-77
2020/12/27 01:35:46;;;;;;;0.70;0.63;;;4.00;99.90;;;;;;5010968;28;20194;-77
2020/12/27 01:38:13;;;;;;;1.45;1.13;;;4.00;99.90;;;;;;5010567;28;20212;-78
2020/12/27 01:40:39;;;;;;;0.85;0.80;;;4.00;99.90;;;;;;5010641;28;20209;-78
2020/12/27 01:43:04;;;;;;;2.30;1.20;;;4.00;99.90;;;;;;5009850;28;20204;-76
2020/12/27 01:45:30;;;;;;;1.17;1.07;;;4.00;99.90;;;;;;5010708;28;20183;-77
2020/12/27 01:47:56;;;;;;;1.10;1.00;;;4.00;99.90;;;;;;5011005;28;20182;-76
2020/12/27 01:50:23;;;;;;;1.00;0.90;;;4.00;99.90;;;;;;5011417;28;20707;-75
2020/12/27 01:52:49;;;;;;;0.90;0.90;;;4.00;99.90;;;;;;5009896;28;20908;-77
2020/12/27 01:55:15;;;;;;;1.17;0.88;;;4.00;99.90;;;;;;5011146;28;20190;-78
2020/12/27 01:58:26;;;;;;;0.88;0.80;;;4.00;99.90;;;;;;5012676;28;20208;-76
2020/12/27 02:00:54;;;;;;;1.73;0.70;;;4.00;99.90;;;;;;4990526;28;20218;-75
2020/12/27 02:03:19;;;;;;;1.13;1.00;;;4.00;99.90;;;;;;5014339;28;20202;-78
2020/12/27 02:05:49;;;;;;;0.90;0.80;;;4.10;99.90;;;;;;5013903;28;20198;-79
2020/12/27 02:08:18;;;;;;;0.95;0.73;;;4.10;99.90;;;;;;5014047;28;20186;-76
2020/12/27 02:10:45;;;;;;;1.00;0.70;;;4.20;99.90;;;;;;5013859;28;20193;-77
2020/12/27 02:13:10;;;;;;;1.00;0.85;;;4.10;99.90;;;;;;5013978;28;20689;-77
2020/12/27 02:15:36;;;;;;;1.77;1.07;;;4.10;99.90;;;;;;5013059;28;20212;-77
2020/12/27 02:18:01;;;;;;;2.20;0.80;;;4.10;99.90;;;;;;5014360;28;20190;-75
2020/12/27 02:20:27;;;;;;;1.03;0.90;;;4.10;99.90;;;;;;5014044;28;20651;-77
2020/12/27 02:22:53;;;;;;;0.90;0.70;;;4.20;99.90;;;;;;5012630;28;20289;-76
2020/12/27 02:25:18;;;;;;;1.20;0.90;;;4.20;99.90;;;;;;5014218;28;20183;-77
2020/12/27 02:27:44;;;;;;;1.50;0.80;;;4.20;99.90;;;;;;5013368;28;20190;-77
2020/12/27 02:30:10;;;;;;;1.83;0.80;;;4.20;99.90;;;;;;5012575;28;20214;-77
2020/12/27 02:32:36;;;;;;;1.30;0.90;;;4.20;99.90;;;;;;5013049;28;20206;-80
2020/12/27 02:35:02;;;;;;;1.70;1.10;;;4.20;99.90;;;;;;5013901;28;20433;-77
2020/12/27 02:37:28;;;;;;;1.02;0.60;;;4.20;99.90;;;;;;5013267;28;20557;-76
2020/12/27 02:39:55;;;;;;;0.70;0.60;;;4.20;99.90;;;;;;5013849;28;20192;-77
2020/12/27 02:42:21;;;;;;;1.40;1.00;;;4.20;99.90;;;;;;5013318;28;20206;-77
2020/12/27 02:47:27;;;;;;;0.80;0.70;;;4.20;99.90;;;;;;5013093;28;20604;-78
2020/12/27 02:49:53;;;;;;;0.80;0.73;;;4.30;99.90;;;;;;5013743;28;20214;-77
2020/12/27 02:52:18;;;;;;;1.17;0.93;;;4.30;99.90;;;;;;5012535;28;20199;-76
2020/12/27 02:54:44;;;;;;;0.80;0.70;;;4.20;99.90;;;;;;5013576;28;20187;-77
2020/12/27 02:57:10;;;;;;;1.10;0.70;;;4.20;99.90;;;;;;5011987;28;20440;-76
2020/12/27 02:59:35;;;;;;;1.07;0.93;;;4.30;99.90;;;;;;5015697;28;20194;-76
2020/12/27 03:02:01;;;;;;;0.70;0.60;;;4.30;99.90;;;;;;5018200;28;20210;-78
2020/12/27 03:04:26;;;;;;;0.70;0.60;;;4.30;99.90;;;;;;5013972;28;20770;-77
2020/12/27 03:06:52;;;;;;;0.90;0.70;;;4.30;99.90;;;;;;5012369;28;20270;-75
2020/12/27 03:09:17;;;;;;;0.93;0.70;;;4.40;99.90;;;;;;5012308;28;20233;-78
2020/12/27 03:11:43;;;;;;;0.70;0.60;;;4.30;99.90;;;;;;5013085;28;20198;-76
2020/12/27 03:14:11;;;;;;;3.70;0.97;;;4.30;99.90;;;;;;5012243;28;20615;-77
2020/12/27 03:16:37;;;;;;;0.90;0.70;;;4.40;99.90;;;;;;5013076;28;20178;-77
2020/12/27 03:19:03;;;;;;;0.77;0.67;;;4.30;99.90;;;;;;5013063;28;20202;-77
2020/12/27 03:21:28;;;;;;;1.60;0.87;;;4.30;99.90;;;;;;5012706;28;20195;-75
2020/12/27 03:23:54;;;;;;;0.90;0.67;;;4.40;99.90;;;;;;5012980;28;20547;-76
2020/12/27 03:26:20;;;;;;;0.93;0.70;;;4.30;99.90;;;;;;5013125;28;20629;-78
2020/12/27 03:28:45;;;;;;;0.80;0.60;;;4.30;99.90;;;;;;5012027;28;20214;-76
2020/12/27 03:31:11;;;;;;;0.70;0.60;;;4.30;99.90;;;;;;5012553;28;20625;-77
2020/12/27 03:33:36;;;;;;;0.70;0.60;;;4.40;99.90;;;;;;5012341;28;20710;-78
2020/12/27 03:36:02;;;;;;;1.80;0.70;;;4.30;99.90;;;;;;5012969;28;20183;-76
2020/12/27 03:38:28;;;;;;;1.13;0.60;;;4.30;99.90;;;;;;5012330;28;20210;-77
2020/12/27 03:40:53;;;;;;;0.70;0.60;;;4.30;99.90;;;;;;5012541;28;20445;-78
2020/12/27 03:43:19;;;;;;;1.37;0.67;;;4.30;99.90;;;;;;5011692;28;20256;-77
2020/12/27 03:45:45;;;;;;;0.80;0.60;;;4.40;99.90;;;;;;5012248;28;20194;-78
2020/12/27 03:48:10;;;;;;;0.97;0.60;;;4.40;99.90;;;;;;5012128;28;20194;-78
2020/12/27 03:50:36;;;;;;;0.73;0.50;;;4.40;99.90;;;;;;5011451;28;20207;-78
2020/12/27 03:53:02;;;;;;;1.63;0.60;;;4.40;99.90;;;;;;5011545;28;20190;-78
2020/12/27 03:55:28;;;;;;;0.70;0.50;;;4.40;99.90;;;;;;5012605;28;20190;-79
2020/12/27 03:57:53;;;;;;;0.70;0.57;;;4.30;99.90;;;;;;5012699;28;20644;-77
2020/12/27 04:00:19;;;;;;;0.70;0.60;;;4.20;99.90;;;;;;5013249;28;20196;-76
2020/12/27 04:02:44;;;;;;;0.70;0.60;;;4.30;99.90;;;;;;5013835;28;20635;-77
2020/12/27 04:05:10;;;;;;;0.80;0.60;;;4.30;99.90;;;;;;5014099;28;20175;-79
2020/12/27 04:07:36;;;;;;;0.80;0.50;;;4.30;99.90;;;;;;5012792;28;20209;-77
2020/12/27 04:10:02;;;;;;;0.80;0.60;;;4.30;99.90;;;;;;5014187;28;20555;-76
2020/12/27 04:12:28;;;;;;;0.90;0.60;;;4.30;99.90;;;;;;5013709;28;20199;-77
2020/12/27 04:14:53;;;;;;;0.70;0.60;;;4.30;99.90;;;;;;5014011;28;20257;-76
2020/12/27 04:17:19;;;;;;;0.70;0.50;;;4.30;99.90;;;;;;5014182;28;20235;-77
2020/12/27 04:19:45;;;;;;;0.70;0.50;;;4.30;99.90;;;;;;5013727;28;20181;-79
2020/12/27 04:22:10;;;;;;;0.70;0.50;;;4.30;99.90;;;;;;5013462;28;20562;-76
2020/12/27 04:24:36;;;;;;;1.10;0.60;;;4.20;99.90;;;;;;5013908;28;20211;-76
2020/12/27 04:27:02;;;;;;;0.97;0.50;;;4.30;99.90;;;;;;5013880;28;20175;-77
2020/12/27 04:29:27;;;;;;;0.80;0.60;;;4.20;99.90;;;;;;5013664;28;20189;-77
2020/12/27 04:31:53;;;;;;;0.80;0.50;;;4.20;99.90;;;;;;5013276;28;20289;-77
2020/12/27 04:34:19;;;;;;;0.68;0.50;;;4.20;99.90;;;;;;5013735;28;20228;-77
2020/12/27 04:36:45;;;;;;;0.60;0.40;;;4.30;99.90;;;;;;5013753;28;20689;-76
2020/12/27 04:39:11;;;;;;;0.60;0.50;;;4.30;99.90;;;;;;5013633;28;20658;-78
2020/12/27 04:41:38;;;;;;;0.60;0.40;;;4.20;99.90;;;;;;5013486;28;20566;-76
2020/12/27 04:44:04;;;;;;;1.70;0.60;;;4.30;99.90;;;;;;5013128;28;20203;-76
2020/12/27 04:46:30;;;;;;;1.20;0.60;;;4.30;99.90;;;;;;5013563;28;20175;-77
2020/12/27 04:48:57;;;;;;;0.60;0.50;;;4.40;99.90;;;;;;5013531;28;20168;-77
2020/12/27 04:51:24;;;;;;;0.70;0.50;;;4.30;99.90;;;;;;5013369;28;20586;-77
2020/12/27 04:53:50;;;;;;;0.60;0.40;;;4.40;99.90;;;;;;5013164;28;20248;-77
2020/12/27 04:56:19;;;;;;;0.77;0.60;;;4.40;99.90;;;;;;5013739;28;20175;-77
2020/12/27 04:58:45;;;;;;;0.70;0.50;;;4.40;99.90;;;;;;5013497;28;20206;-76
2020/12/27 05:01:10;;;;;;;0.83;0.77;;;4.50;99.90;;;;;;5013458;28;20196;-77
2020/12/27 05:03:36;;;;;;;1.53;0.50;;;4.50;99.90;;;;;;5011912;28;20205;-76
2020/12/27 05:06:02;;;;;;;0.67;0.53;;;4.50;99.90;;;;;;5013540;28;20206;-76
2020/12/27 05:08:27;;;;;;;1.77;0.50;;;4.40;99.90;;;;;;5013330;28;20174;-76
2020/12/27 05:10:53;;;;;;;0.60;0.50;;;4.50;99.90;;;;;;5013362;28;20225;-77
2020/12/27 05:13:19;;;;;;;0.90;0.50;;;4.50;99.90;;;;;;5013072;28;20549;-76
2020/12/27 05:15:45;;;;;;;1.60;0.60;;;4.50;99.90;;;;;;5013234;28;20178;-78
2020/12/27 05:18:12;;;;;;;0.90;0.50;;;4.50;99.90;;;;;;5013154;28;20417;-77
2020/12/27 05:20:43;;;;;;;0.75;0.55;;;4.50;99.90;;;;;;5013187;28;20187;-75
2020/12/27 05:23:09;;;;;;;0.60;0.50;;;4.50;99.90;;;;;;5012731;28;20206;-76
2020/12/27 05:25:40;;;;;;;0.70;0.50;;;4.50;99.90;;;;;;5013151;28;20270;-76
2020/12/27 05:28:10;;;;;;;0.70;0.50;;;4.50;99.90;;;;;;5012754;28;20197;-76
2020/12/27 05:30:42;;;;;;;1.65;0.50;;;4.60;99.90;;;;;;5013065;28;20195;-77
2020/12/27 05:33:15;;;;;;;0.80;0.60;;;4.60;99.90;;;;;;5015724;28;20183;-76
2020/12/27 05:35:41;;;;;;;1.02;0.50;;;4.60;99.90;;;;;;5016823;28;20604;-77
2020/12/27 05:38:09;;;;;;;0.60;0.50;;;4.60;99.90;;;;;;5016735;28;20235;-77
2020/12/27 05:40:36;;;;;;;1.23;0.60;;;4.60;99.90;;;;;;5016744;28;20195;-75
2020/12/27 05:43:14;;;;;;;0.70;0.50;;;4.60;99.90;;;;;;5016462;28;20195;-76
2020/12/27 05:45:40;;;;;;;0.70;0.57;;;4.70;99.90;;;;;;5016708;28;20217;-77
2020/12/27 05:48:07;;;;;;;0.82;0.73;;;4.70;99.90;;;;;;5016689;28;20192;-76
2020/12/27 05:50:40;;;;;;;0.68;0.52;;;4.60;99.90;;;;;;5016816;28;20175;-77
2020/12/27 05:53:20;;;;;;;2.58;0.57;;;4.70;99.90;;;;;;5016419;28;20176;-75
2020/12/27 05:55:48;;;;;;;0.60;0.50;;;4.70;99.90;;;;;;5016838;28;20178;-76
2020/12/27 05:58:22;;;;;;;0.60;0.50;;;4.70;99.90;;;;;;5016675;28;20186;-76
2020/12/27 06:00:56;;;;;;;0.60;0.50;;;4.70;99.90;;;;;;5016608;28;20191;-76
2020/12/27 06:03:27;;;;;;;1.45;0.50;;;4.70;99.90;;;;;;5015959;28;20314;-76
2020/12/27 06:05:55;;;;;;;0.73;0.47;;;4.70;99.90;;;;;;5016442;28;20269;-76
2020/12/27 06:08:27;;;;;;;0.80;0.50;;;4.60;99.90;;;;;;5016422;28;20233;-76
2020/12/27 06:11:05;;;;;;;0.70;0.50;;;4.80;99.90;;;;;;5016172;28;20886;-76
2020/12/27 06:14:08;;;;;;;1.05;0.50;;;4.80;99.90;;;;;;5015931;28;20254;-76
2020/12/27 06:16:45;;;;;;;0.70;0.50;;;4.80;99.90;;;;;;5016272;28;20181;-77
2020/12/27 06:19:23;;;;;;;0.70;0.50;;;4.80;99.90;;;;;;5016413;28;20170;-77
2020/12/27 06:22:02;;;;;;;0.70;0.40;;;4.80;99.90;;;;;;5015839;28;20249;-77
2020/12/27 06:24:30;;;;;;;0.60;0.40;;;4.80;99.90;;;;;;5016428;28;20212;-77
2020/12/27 06:26:57;;;;;;;0.70;0.50;;;4.80;99.90;;;;;;5015955;28;20202;-78
2020/12/27 06:29:22;;;;;;;0.70;0.50;;;4.80;99.90;;;;;;5015826;28;20195;-77
2020/12/27 06:31:50;;;;;;;1.43;0.50;;;4.80;99.90;;;;;;5015753;28;20604;-78
2020/12/27 06:34:16;;;;;;;0.60;0.50;;;4.90;99.90;;;;;;5015833;28;20410;-78
2020/12/27 06:36:42;;;;;;;0.65;0.50;;;4.80;99.90;;;;;;5015698;28;20163;-77
2020/12/27 06:39:27;;;;;;;0.73;0.50;;;4.80;99.90;;;;;;5015779;28;20182;-77
2020/12/27 06:42:16;;;;;;;0.65;0.50;;;4.80;99.90;;;;;;5015535;28;20194;-78
2020/12/27 06:44:42;;;;;;;2.40;0.50;;;4.90;99.90;;;;;;5014463;28;20179;-76
2020/12/27 06:47:09;;;;;;;0.60;0.40;;;4.90;99.90;;;;;;5015581;28;20170;-77
2020/12/27 06:49:35;;;;;;;0.77;0.50;;;4.90;99.90;;;;;;5015709;28;20198;-78
2020/12/27 06:52:21;;;;;;;0.60;0.40;;;4.90;99.90;;;;;;5015247;28;20574;-75
2020/12/27 06:54:52;;;;;;;0.70;0.40;;;4.90;99.90;;;;;;5015390;28;20171;-76
2020/12/27 06:57:43;;;;;;;0.70;0.50;;;4.90;99.90;;;;;;5015498;28;20167;-77
2020/12/27 07:00:28;;;;;;;0.60;0.45;;;4.90;99.90;;;;;;5015422;28;20167;-77
2020/12/27 07:03:20;;;;;;;0.70;0.50;;;5.00;99.90;;;;;;5014769;28;20679;-76
2020/12/27 07:05:47;;;;;;;0.60;0.50;;;5.00;99.90;;;;;;5015542;28;20203;-76
2020/12/27 07:08:40;;;;;;;0.60;0.50;;;5.00;99.90;;;;;;5015302;28;20194;-76
2020/12/27 07:11:06;;;;;;;0.60;0.40;;;5.00;99.90;;;;;;5015007;28;20574;-78
2020/12/27 07:13:45;;;;;;;0.60;0.40;;;5.00;99.90;;;;;;5015024;28;20232;-76
2020/12/27 07:16:16;;;;;;;0.60;0.50;;;4.90;99.90;;;;;;5015103;28;20429;-77
2020/12/27 07:18:45;;;;;;;1.70;0.47;;;5.00;99.90;;;;;;5015292;28;20590;-77
2020/12/27 07:21:13;;;;;;;0.73;0.57;;;5.10;99.90;;;;;;5014828;28;20238;-76
2020/12/27 07:24:08;;;;;;;0.60;0.40;;;5.00;99.90;;;;;;5014583;28;20207;-76
2020/12/27 07:26:37;;;;;;;0.60;0.50;;;5.00;99.90;;;;;;5014771;28;20189;-78
2020/12/27 07:29:07;;;;;;;0.70;0.50;;;5.00;99.90;;;;;;5014619;28;20240;-78
2020/12/27 07:31:34;;;;;;;0.68;0.50;;;5.00;99.90;;;;;;5014587;28;20283;-77
2020/12/27 07:34:00;;;;;;;0.70;0.60;;;5.00;99.90;;;;;;5014335;28;20175;-76
2020/12/27 07:36:26;;;;;;;0.60;0.50;;;5.00;99.90;;;;;;5014681;28;20190;-76
2020/12/27 07:39:03;;;;;;;0.93;0.50;;;5.00;99.90;;;;;;5014444;28;20426;-76
2020/12/27 07:41:40;;;;;;;0.80;0.50;;;5.00;99.90;;;;;;5014723;28;20222;-77
2020/12/27 07:44:17;;;;;;;0.70;0.50;;;5.10;99.90;;;;;;5014309;28;20202;-78
2020/12/27 07:46:43;;;;;;;0.70;0.50;;;5.00;99.90;;;;;;5014613;28;20551;-77
2020/12/27 07:49:13;;;;;;;0.90;0.60;;;5.00;99.90;;;;;;5014391;28;20552;-77
2020/12/27 07:51:39;;;;;;;0.70;0.50;;;5.00;99.90;;;;;;5014152;28;20199;-76
2020/12/27 07:54:06;;;;;;;1.33;0.60;;;4.90;99.90;;;;;;5013930;28;20177;-76
2020/12/27 07:56:32;;;;;;;0.85;0.60;;;5.00;99.90;;;;;;5014454;28;20679;-78
2020/12/27 07:58:59;;;;;;;1.40;0.63;;;5.00;99.90;;;;;;5014423;28;20182;-76
2020/12/27 08:01:27;;;;;;;0.60;0.50;;;5.00;99.90;;;;;;5014082;28;20194;-77
2020/12/27 08:03:58;;;;;;;0.85;0.63;;;5.00;99.90;;;;;;5013779;28;20249;-77
2020/12/27 08:06:25;;;;;;;0.70;0.50;;;5.00;99.90;;;;;;5014378;28;20175;-76
2020/12/27 08:09:03;;;;;;;0.60;0.50;;;4.90;99.90;;;;;;5014138;28;20576;-78
2020/12/27 08:11:30;;;;;;;0.90;0.70;;;4.90;99.90;;;;;;5013862;28;20190;-77
2020/12/27 08:13:58;;;;;;;0.70;0.50;;;5.00;99.90;;;;;;5013780;28;20566;-75
2020/12/27 08:16:25;;;;;;;1.17;0.60;;;5.00;99.90;;;;;;5014041;28;20179;-77
2020/12/27 08:19:08;;;;;;;0.60;0.50;;;5.00;99.90;;;;;;5013990;28;20539;-76
2020/12/27 08:21:35;;;;;;;0.70;0.50;;;5.00;99.90;;;;;;5013731;28;20198;-78
2020/12/27 08:24:06;;;;;;;0.60;0.50;;;5.00;99.90;;;;;;5013645;28;20617;-76
2020/12/27 08:26:33;;;;;;;0.70;0.50;;;5.10;99.90;;;;;;5013857;28;20565;-76
2020/12/27 08:29:12;;;;;;;0.60;0.50;;;5.10;99.90;;;;;;5013671;28;20273;-76
2020/12/27 08:31:38;;;;;;;0.70;0.52;;;5.10;99.90;;;;;;5013581;28;20266;-77
2020/12/27 08:34:13;;;;;;;0.63;0.45;;;5.10;99.90;;;;;;5013426;28;20183;-77
2020/12/27 08:36:55;;;;;;;0.80;0.47;;;5.10;99.90;;;;;;5013611;28;20171;-78
2020/12/27 08:39:25;;;;;;;0.70;0.68;;;5.10;99.90;;;;;;5013590;28;20163;-77
2020/12/27 08:42:06;;;;;;;0.70;0.50;;;5.10;99.90;;;;;;5013290;28;20203;-77
2020/12/27 08:44:52;;;;;;;0.80;0.50;;;5.10;99.90;;;;;;5013494;28;20167;-77
2020/12/27 08:47:26;;;;;;;0.70;0.50;;;5.20;99.90;;;;;;5013596;28;20159;-76
2020/12/27 08:50:08;;;;;;;0.80;0.60;;;5.10;99.90;;;;;;5013716;28;20183;-77
2020/12/27 08:52:34;;;;;;;0.70;0.50;;;5.10;99.90;;;;;;5013166;28;20591;-77
2020/12/27 08:55:03;;;;;;;0.80;0.60;;;5.20;99.90;;;;;;5013548;28;20186;-76
2020/12/27 08:57:29;;;;;;;0.70;0.55;;;5.20;99.90;;;;;;5013428;28;20213;-77
2020/12/27 09:00:00;;;;;;;0.68;0.50;;;5.20;99.90;;;;;;5013292;28;20181;-78
2020/12/27 09:02:26;;;;;;;1.08;0.50;;;5.30;99.90;;;;;;5012890;28;20294;-78
2020/12/27 09:05:00;;;;;;;0.70;0.50;;;5.30;99.90;;;;;;5013251;28;20587;-78
2020/12/27 09:07:34;;;;;;;0.60;0.45;;;5.20;99.90;;;;;;5015257;28;20181;-76
2020/12/27 09:10:14;;;;;;;0.70;0.50;;;5.30;99.90;;;;;;5017631;28;20237;-77
2020/12/27 09:13:01;;;;;;;1.83;0.50;;;5.30;99.90;;;;;;5017072;28;20281;-76
2020/12/27 09:15:35;;;;;;;0.77;0.60;;;5.40;99.90;;;;;;5017436;28;20177;-77
2020/12/27 09:18:05;;;;;;;1.50;0.50;;;5.40;99.90;;;;;;5017059;28;20173;-77
2020/12/27 09:20:33;;;;;;;0.70;0.50;;;5.30;99.90;;;;;;5017197;28;20176;-76
2020/12/27 09:22:59;;;;;;;0.70;0.50;;;5.40;99.90;;;;;;5016881;28;20199;-77
2020/12/27 09:25:26;;;;;;;0.63;0.50;;;5.30;99.90;;;;;;5017172;28;20167;-77
2020/12/27 09:27:53;;;;;;;0.85;0.50;;;5.40;99.90;;;;;;5017074;28;20256;-75
2020/12/27 09:30:22;;;;;;;0.70;0.50;;;5.40;99.90;;;;;;5016898;28;20183;-77
2020/12/27 09:32:48;;;;;;;0.70;0.50;;;5.40;99.90;;;;;;5016571;28;20705;-78
2020/12/27 09:35:18;;;;;;;0.70;0.52;;;5.40;99.90;;;;;;5016862;28;20179;-77
2020/12/27 09:37:44;;;;;;;0.60;0.50;;;5.40;99.90;;;;;;5016874;28;20178;-77
2020/12/27 09:40:10;;;;;;;0.60;0.50;;;5.40;99.90;;;;;;5016635;28;20188;-77
2020/12/27 09:42:35;;;;;;;0.73;0.50;;;5.40;99.90;;;;;;5016346;28;20199;-78
2020/12/27 09:45:23;;;;;;;1.10;0.60;;;5.40;99.90;;;;;;5016880;28;20535;-76
2020/12/27 09:47:53;;;;;;;1.10;0.73;;;5.50;99.90;;;;;;5016690;28;20253;-75
2020/12/27 09:50:37;;;;;;;0.80;0.60;;;5.40;99.90;;;;;;5016409;28;20171;-77
2020/12/27 09:53:06;;;;;;;0.75;0.60;;;5.40;99.90;;;;;;5016303;28;20255;-77
2020/12/27 09:55:34;;;;;;;0.60;0.50;;;5.50;99.90;;;;;;5016621;28;20175;-78
2020/12/27 09:57:59;;;;;;;0.70;0.50;;;5.50;99.90;;;;;;5016487;28;20228;-76
2020/12/27 10:00:25;;;;;;;0.70;0.50;;;5.50;99.90;;;;;;5016463;28;20179;-75
2020/12/27 10:02:51;;;;;;;1.83;0.60;;;5.60;99.90;;;;;;5016357;28;20772;-75
2020/12/27 10:05:17;;;;;;;0.70;0.47;;;5.50;99.90;;;;;;5016525;28;20405;-77
2020/12/27 10:07:44;;;;;;;0.70;0.53;;;5.60;99.90;;;;;;5016473;28;20443;-77
2020/12/27 10:10:12;;;;;;;0.70;0.50;;;5.60;99.90;;;;;;5016312;28;20182;-76
2020/12/27 10:12:38;;;;;;;2.00;0.50;;;5.60;99.90;;;;;;5015843;28;20562;-75
2020/12/27 10:15:08;;;;;;;0.70;0.50;;;5.60;99.90;;;;;;5016191;28;20186;-76
2020/12/27 10:17:34;;;;;;;0.60;0.50;;;5.70;99.90;;;;;;5015833;28;20536;-77
2020/12/27 10:20:01;;;;;;;0.83;0.50;;;5.60;99.90;;;;;;5016169;28;20174;-76
2020/12/27 10:22:27;;;;;;;0.60;0.40;;;5.60;99.90;;;;;;5015530;28;20480;-77
2020/12/27 10:24:53;;;;;;;4.00;0.57;;;5.70;99.90;;;;;;5016249;28;20581;-77
2020/12/27 10:27:19;;;;;;;0.60;0.50;;;5.60;99.90;;;;;;5015915;28;20206;-76
2020/12/27 10:29:44;;;;;;;0.80;0.50;;;5.70;99.90;;;;;;5016054;28;20764;-75
2020/12/27 10:32:10;;;;;;;0.80;0.60;;;5.70;99.90;;;;;;5015568;28;20200;-76
2020/12/27 10:34:36;;;;;;;0.70;0.50;;;5.70;99.90;;;;;;5015748;28;20199;-76
2020/12/27 10:37:03;;;;;;;1.00;0.53;;;5.70;99.90;;;;;;5016179;28;20175;-75
2020/12/27 10:39:29;;;;;;;0.60;0.50;;;5.70;99.90;;;;;;5015765;28;20182;-77
2020/12/27 10:41:56;;;;;;;0.70;0.50;;;5.60;99.90;;;;;;5015312;28;20199;-77
2020/12/27 10:44:22;;;;;;;0.90;0.60;;;5.60;99.90;;;;;;5015659;28;20198;-75
2020/12/27 10:46:51;;;;;;;0.80;0.70;;;5.60;99.90;;;;;;5015455;28;20211;-75
2020/12/27 10:49:21;;;;;;;0.70;0.65;;;5.60;99.90;;;;;;5015881;28;20565;-77
2020/12/27 10:51:47;;;;;;;0.80;0.70;;;5.60;99.90;;;;;;5015375;28;20218;-76
2020/12/27 10:54:13;;;;;;;0.70;0.50;;;5.60;99.90;;;;;;5015396;28;20214;-75
2020/12/27 10:56:41;;;;;;;0.80;0.60;;;5.50;99.90;;;;;;5015499;28;20433;-77
2020/12/27 10:59:07;;;;;;;0.70;0.55;;;5.50;99.90;;;;;;5015353;28;20425;-75
2020/12/27 11:01:32;;;;;;;0.90;0.67;;;5.60;99.90;;;;;;5015480;28;20214;-76
2020/12/27 11:03:58;;;;;;;1.00;0.60;;;5.60;99.90;;;;;;5015059;28;20577;-76
2020/12/27 11:06:31;;;;;;;0.90;0.70;;;5.60;99.90;;;;;;5015375;28;20202;-75
2020/12/27 11:08:58;;;;;;;0.70;0.60;;;5.70;99.90;;;;;;5015419;28;20165;-74
2020/12/27 11:11:24;;;;;;;0.80;0.70;;;5.60;99.90;;;;;;5015243;28;20238;-76
2020/12/27 11:13:49;;;;;;;0.80;0.70;;;5.70;99.90;;;;;;5014750;28;20202;-77
2020/12/27 11:16:16;;;;;;;2.10;0.80;;;5.70;99.90;;;;;;5015107;28;20198;-76
2020/12/27 11:18:41;;;;;;;0.90;0.65;;;5.60;99.90;;;;;;5015100;28;20178;-77
2020/12/27 11:21:07;;;;;;;0.90;0.60;;;5.70;99.90;;;;;;5015272;28;20281;-75
2020/12/27 11:23:33;;;;;;;0.77;0.60;;;5.60;99.90;;;;;;5014790;28;20260;-76
2020/12/27 11:25:58;;;;;;;1.30;0.70;;;5.60;99.90;;;;;;5014971;28;20460;-76
2020/12/27 11:28:24;;;;;;;0.90;0.57;;;5.60;99.90;;;;;;5014864;28;20265;-75
2020/12/27 11:30:49;;;;;;;0.67;0.50;;;5.70;99.90;;;;;;5013995;28;20263;-76
2020/12/27 11:33:15;;;;;;;1.93;0.53;;;5.80;99.90;;;;;;5014449;28;20608;-73
2020/12/27 11:35:40;;;;;;;0.73;0.60;;;5.80;99.90;;;;;;5014816;28;20237;-75
2020/12/27 11:38:07;;;;;;;0.80;0.50;;;5.80;99.90;;;;;;5014577;28;20205;-74
2020/12/27 11:40:33;;;;;;;0.60;0.50;;;5.90;99.90;;;;;;5014419;28;20172;-74
2020/12/27 11:42:59;;;;;;;0.60;0.50;;;5.80;99.90;;;;;;5014132;28;20293;-75
2020/12/27 11:45:24;;;;;;;0.60;0.50;;;6.00;99.90;;;;;;5014531;28;20202;-75
2020/12/27 11:47:50;;;;;;;0.87;0.60;;;6.00;99.90;;;;;;5014520;28;20579;-75
2020/12/27 11:50:16;;;;;;;0.70;0.60;;;6.00;99.90;;;;;;5011295;28;20186;-75
2020/12/27 11:52:41;;;;;;;0.97;0.73;;;5.90;99.90;;;;;;5009741;28;20642;-74
2020/12/27 11:55:07;;;;;;;1.00;0.70;;;5.90;99.90;;;;;;5012956;28;20183;-75
2020/12/27 11:57:34;;;;;;;0.80;0.67;;;6.00;99.90;;;;;;5014353;28;20170;-74
2020/12/27 12:00:00;;;;;;;0.60;0.50;;;6.00;99.90;;;;;;5014364;28;20191;-74
2020/12/27 12:02:26;;;;;;;0.82;0.60;;;5.90;99.90;;;;;;5013736;28;20201;-75
2020/12/27 12:04:53;;;;;;;0.63;0.50;;;5.90;99.90;;;;;;5014495;28;20509;-75
2020/12/27 12:07:18;;;;;;;0.82;0.60;;;5.90;99.90;;;;;;5014334;28;20449;-75
2020/12/27 12:09:44;;;;;;;0.63;0.53;;;5.90;99.90;;;;;;5014353;28;20162;-74
2020/12/27 12:12:10;;;;;;;0.87;0.63;;;5.90;99.90;;;;;;5013699;28;20195;-75
2020/12/27 12:14:35;;;;;;;0.80;0.60;;;5.80;99.90;;;;;;5014197;28;20515;-74
2020/12/27 12:17:01;;;;;;;0.70;0.60;;;5.80;99.90;;;;;;5014255;28;20178;-75
2020/12/27 12:19:26;;;;;;;0.70;0.60;;;5.80;99.90;;;;;;5013899;28;20170;-75
2020/12/27 12:21:52;;;;;;;0.67;0.50;;;5.80;99.90;;;;;;5013540;28;20248;-74
2020/12/27 12:24:22;;;;;;;0.70;0.50;;;5.80;99.90;;;;;;5014036;28;20242;-75
2020/12/27 12:26:48;;;;;;;0.80;0.70;;;5.70;99.90;;;;;;5013820;28;20172;-76
2020/12/27 12:29:13;;;;;;;0.80;0.60;;;5.70;99.90;;;;;;5013802;28;20182;-77
2020/12/27 12:31:39;;;;;;;1.00;0.50;;;5.70;99.90;;;;;;5013736;28;20600;-75
2020/12/27 12:34:05;;;;;;;0.90;0.67;;;5.60;99.90;;;;;;5013672;28;20213;-75
2020/12/27 12:36:32;;;;;;;0.70;0.50;;;5.60;99.90;;;;;;5013868;28;20180;-74
2020/12/27 12:38:57;;;;;;;0.70;0.50;;;5.70;99.90;;;;;;5013680;28;20181;-75
2020/12/27 12:41:25;;;;;;;2.00;0.60;;;5.60;99.90;;;;;;5013440;28;20198;-75
2020/12/27 12:43:51;;;;;;;0.73;0.57;;;5.60;99.90;;;;;;5013196;28;20202;-74
2020/12/27 12:46:18;;;;;;;0.80;0.70;;;5.70;99.90;;;;;;5013503;28;20191;-75
2020/12/27 12:48:44;;;;;;;0.70;0.50;;;5.70;99.90;;;;;;5013511;28;20441;-74
2020/12/27 12:51:10;;;;;;;0.70;0.50;;;5.60;99.90;;;;;;5004144;28;20207;-74
2020/12/27 12:53:36;;;;;;;0.87;0.73;;;5.60;99.90;;;;;;5007571;28;20185;-74
2020/12/27 12:56:02;;;;;;;0.93;0.50;;;5.70;99.90;;;;;;5013598;28;20175;-75
2020/12/27 12:58:27;;;;;;;1.20;0.60;;;5.70;99.90;;;;;;5003315;28;20627;-74
2020/12/27 13:00:53;;;;;;;0.67;0.50;;;5.70;99.90;;;;;;5004007;28;20290;-74
2020/12/27 13:03:19;;;;;;;1.63;0.60;;;5.60;99.90;;;;;;5002039;28;20234;-74
2020/12/27 13:05:44;;;;;;;0.90;0.57;;;5.60;99.90;;;;;;5002010;28;20245;-75